sensor_id;sensor_type;location;lat;lon;timestamp;P1;durP1;ratioP1;P2;durP2;ratioP2
68888;SDS011;55930;47.412;8.790;2022-12-07T00:02:10;41.08;;;27.27;;
68888;SDS011;55930;47.412;8.790;2022-12-07T00:05:30;42.03;;;28.37;;
68888;SDS011;55930;47.412;8.790;2022-12-07T00:08:51;46.03;;;29.03;;
68888;SDS011;55930;47.412;8.790;2022-12-07T00:12:11;45.20;;;29.90;;
68888;SDS011;55930;47.412;8.790;2022-12-07T00:15:33;42.43;;;28.67;;
68888;SDS011;55930;47.412;8.790;2022-12-07T00:18:55;45.22;;;28.50;;
68888;SDS011;55930;47.412;8.790;2022-12-07T00:22:19;47.00;;;30.83;;
68888;SDS011;55930;47.412;8.790;2022-12-07T00:25:39;49.42;;;31.90;;
68888;SDS011;55930;47.412;8.790;2022-12-07T00:29:02;43.10;;;27.30;;
68888;SDS011;55930;47.412;8.790;2022-12-07T00:32:25;44.45;;;29.10;;
68888;SDS011;55930;47.412;8.790;2022-12-07T00:35:46;46.78;;;29.80;;
68888;SDS011;55930;47.412;8.790;2022-12-07T00:39:06;45.70;;;30.27;;
68888;SDS011;55930;47.412;8.790;2022-12-07T00:42:26;42.57;;;27.80;;
68888;SDS011;55930;47.412;8.790;2022-12-07T00:45:47;44.77;;;28.70;;
68888;SDS011;55930;47.412;8.790;2022-12-07T00:49:07;41.57;;;28.70;;
68888;SDS011;55930;47.412;8.790;2022-12-07T00:52:28;45.57;;;29.43;;
68888;SDS011;55930;47.412;8.790;2022-12-07T00:55:48;46.87;;;29.27;;
68888;SDS011;55930;47.412;8.790;2022-12-07T00:59:10;45.70;;;28.60;;
68888;SDS011;55930;47.412;8.790;2022-12-07T01:02:34;47.53;;;29.45;;
68888;SDS011;55930;47.412;8.790;2022-12-07T01:05:54;41.07;;;26.57;;
68888;SDS011;55930;47.412;8.790;2022-12-07T01:09:18;44.58;;;29.05;;
68888;SDS011;55930;47.412;8.790;2022-12-07T01:12:39;43.47;;;27.67;;
68888;SDS011;55930;47.412;8.790;2022-12-07T01:16:01;40.15;;;24.20;;
68888;SDS011;55930;47.412;8.790;2022-12-07T01:19:25;43.35;;;27.95;;
68888;SDS011;55930;47.412;8.790;2022-12-07T01:22:46;48.10;;;31.63;;
68888;SDS011;55930;47.412;8.790;2022-12-07T01:26:07;45.13;;;28.97;;
68888;SDS011;55930;47.412;8.790;2022-12-07T01:29:31;46.70;;;30.35;;
68888;SDS011;55930;47.412;8.790;2022-12-07T01:32:54;49.93;;;29.80;;
68888;SDS011;55930;47.412;8.790;2022-12-07T01:36:18;46.15;;;29.67;;
68888;SDS011;55930;47.412;8.790;2022-12-07T01:39:41;46.90;;;31.67;;
68888;SDS011;55930;47.412;8.790;2022-12-07T01:43:01;45.60;;;28.13;;
68888;SDS011;55930;47.412;8.790;2022-12-07T01:46:22;44.73;;;29.27;;
68888;SDS011;55930;47.412;8.790;2022-12-07T01:49:44;43.43;;;27.33;;
68888;SDS011;55930;47.412;8.790;2022-12-07T01:53:14;42.45;;;26.50;;
68888;SDS011;55930;47.412;8.790;2022-12-07T01:56:38;44.83;;;28.58;;
68888;SDS011;55930;47.412;8.790;2022-12-07T02:00:05;41.33;;;27.20;;
68888;SDS011;55930;47.412;8.790;2022-12-07T02:03:30;44.40;;;28.10;;
68888;SDS011;55930;47.412;8.790;2022-12-07T02:06:55;44.08;;;28.40;;
68888;SDS011;55930;47.412;8.790;2022-12-07T02:10:20;47.33;;;30.88;;
68888;SDS011;55930;47.412;8.790;2022-12-07T02:13:45;43.05;;;28.23;;
68888;SDS011;55930;47.412;8.790;2022-12-07T02:24:52;44.13;;;27.98;;
68888;SDS011;55930;47.412;8.790;2022-12-07T02:32:06;41.67;;;26.50;;
68888;SDS011;55930;47.412;8.790;2022-12-07T02:35:36;37.67;;;24.73;;
68888;SDS011;55930;47.412;8.790;2022-12-07T02:43:13;37.50;;;23.50;;
68888;SDS011;55930;47.412;8.790;2022-12-07T02:46:37;40.92;;;25.88;;
68888;SDS011;55930;47.412;8.790;2022-12-07T02:50:05;38.55;;;25.15;;
68888;SDS011;55930;47.412;8.790;2022-12-07T03:00:31;38.22;;;24.85;;
68888;SDS011;55930;47.412;8.790;2022-12-07T03:11:48;40.45;;;25.80;;
68888;SDS011;55930;47.412;8.790;2022-12-07T03:15:27;39.83;;;25.88;;
68888;SDS011;55930;47.412;8.790;2022-12-07T03:18:58;40.40;;;25.75;;
68888;SDS011;55930;47.412;8.790;2022-12-07T03:22:22;36.97;;;25.50;;
68888;SDS011;55930;47.412;8.790;2022-12-07T03:25:45;38.28;;;26.52;;
68888;SDS011;55930;47.412;8.790;2022-12-07T03:29:11;36.92;;;25.58;;
68888;SDS011;55930;47.412;8.790;2022-12-07T03:32:53;37.67;;;24.20;;
68888;SDS011;55930;47.412;8.790;2022-12-07T03:50:54;38.53;;;25.98;;
68888;SDS011;55930;47.412;8.790;2022-12-07T03:54:20;36.47;;;24.52;;
68888;SDS011;55930;47.412;8.790;2022-12-07T03:57:47;40.17;;;25.83;;
68888;SDS011;55930;47.412;8.790;2022-12-07T04:01:11;42.42;;;26.45;;
68888;SDS011;55930;47.412;8.790;2022-12-07T04:04:32;38.27;;;25.13;;
68888;SDS011;55930;47.412;8.790;2022-12-07T04:07:54;39.85;;;25.80;;
68888;SDS011;55930;47.412;8.790;2022-12-07T04:11:16;41.80;;;25.45;;
68888;SDS011;55930;47.412;8.790;2022-12-07T04:14:37;39.40;;;26.23;;
68888;SDS011;55930;47.412;8.790;2022-12-07T04:17:57;30.87;;;19.30;;
68888;SDS011;55930;47.412;8.790;2022-12-07T04:21:17;38.13;;;26.23;;
68888;SDS011;55930;47.412;8.790;2022-12-07T04:24:38;38.53;;;25.67;;
68888;SDS011;55930;47.412;8.790;2022-12-07T04:27:58;39.20;;;26.77;;
68888;SDS011;55930;47.412;8.790;2022-12-07T04:31:19;40.63;;;26.77;;
68888;SDS011;55930;47.412;8.790;2022-12-07T04:34:40;41.10;;;25.70;;
68888;SDS011;55930;47.412;8.790;2022-12-07T04:38:00;36.70;;;25.20;;
68888;SDS011;55930;47.412;8.790;2022-12-07T04:41:21;36.70;;;24.87;;
68888;SDS011;55930;47.412;8.790;2022-12-07T04:44:46;39.72;;;26.38;;
68888;SDS011;55930;47.412;8.790;2022-12-07T04:48:07;43.10;;;27.00;;
68888;SDS011;55930;47.412;8.790;2022-12-07T04:51:33;40.67;;;26.73;;
68888;SDS011;55930;47.412;8.790;2022-12-07T04:54:53;41.00;;;27.10;;
68888;SDS011;55930;47.412;8.790;2022-12-07T04:58:13;38.40;;;25.97;;
68888;SDS011;55930;47.412;8.790;2022-12-07T05:01:34;40.97;;;26.83;;
68888;SDS011;55930;47.412;8.790;2022-12-07T05:04:54;40.63;;;25.77;;
68888;SDS011;55930;47.412;8.790;2022-12-07T05:08:15;38.97;;;25.23;;
68888;SDS011;55930;47.412;8.790;2022-12-07T05:11:37;41.13;;;27.23;;
68888;SDS011;55930;47.412;8.790;2022-12-07T05:14:58;42.47;;;27.73;;
68888;SDS011;55930;47.412;8.790;2022-12-07T05:18:20;42.17;;;26.85;;
68888;SDS011;55930;47.412;8.790;2022-12-07T05:21:41;44.00;;;28.77;;
68888;SDS011;55930;47.412;8.790;2022-12-07T05:25:01;44.97;;;28.83;;
68888;SDS011;55930;47.412;8.790;2022-12-07T05:28:24;41.63;;;26.70;;
68888;SDS011;55930;47.412;8.790;2022-12-07T05:31:45;46.67;;;29.17;;
68888;SDS011;55930;47.412;8.790;2022-12-07T05:35:08;46.67;;;27.97;;
68888;SDS011;55930;47.412;8.790;2022-12-07T05:38:28;49.97;;;29.65;;
68888;SDS011;55930;47.412;8.790;2022-12-07T05:41:49;50.57;;;28.47;;
68888;SDS011;55930;47.412;8.790;2022-12-07T05:45:28;46.65;;;28.52;;
68888;SDS011;55930;47.412;8.790;2022-12-07T05:48:48;47.23;;;28.67;;
68888;SDS011;55930;47.412;8.790;2022-12-07T05:52:14;50.20;;;28.73;;
68888;SDS011;55930;47.412;8.790;2022-12-07T05:55:34;50.63;;;30.55;;
68888;SDS011;55930;47.412;8.790;2022-12-07T05:58:54;45.20;;;29.60;;
68888;SDS011;55930;47.412;8.790;2022-12-07T06:02:33;45.30;;;27.98;;
68888;SDS011;55930;47.412;8.790;2022-12-07T06:05:54;50.37;;;29.97;;
68888;SDS011;55930;47.412;8.790;2022-12-07T06:09:14;45.20;;;28.43;;
68888;SDS011;55930;47.412;8.790;2022-12-07T06:12:35;49.57;;;29.80;;
68888;SDS011;55930;47.412;8.790;2022-12-07T06:15:58;49.88;;;28.67;;
68888;SDS011;55930;47.412;8.790;2022-12-07T06:19:18;46.47;;;28.37;;
68888;SDS011;55930;47.412;8.790;2022-12-07T06:22:40;47.17;;;27.83;;
68888;SDS011;55930;47.412;8.790;2022-12-07T06:26:00;50.50;;;29.83;;
68888;SDS011;55930;47.412;8.790;2022-12-07T06:29:21;46.10;;;29.13;;
68888;SDS011;55930;47.412;8.790;2022-12-07T06:32:42;43.38;;;27.02;;
68888;SDS011;55930;47.412;8.790;2022-12-07T06:36:02;50.27;;;29.13;;
68888;SDS011;55930;47.412;8.790;2022-12-07T06:39:26;50.07;;;29.70;;
68888;SDS011;55930;47.412;8.790;2022-12-07T06:42:47;51.90;;;29.02;;
68888;SDS011;55930;47.412;8.790;2022-12-07T06:46:08;48.20;;;28.33;;
68888;SDS011;55930;47.412;8.790;2022-12-07T06:49:28;56.37;;;31.17;;
68888;SDS011;55930;47.412;8.790;2022-12-07T06:52:50;52.20;;;30.10;;
68888;SDS011;55930;47.412;8.790;2022-12-07T06:56:11;49.55;;;30.67;;
68888;SDS011;55930;47.412;8.790;2022-12-07T06:59:31;39.13;;;23.47;;
68888;SDS011;55930;47.412;8.790;2022-12-07T07:02:54;56.97;;;31.13;;
68888;SDS011;55930;47.412;8.790;2022-12-07T07:06:15;56.77;;;31.73;;
68888;SDS011;55930;47.412;8.790;2022-12-07T07:09:38;60.20;;;31.90;;
68888;SDS011;55930;47.412;8.790;2022-12-07T07:13:01;52.80;;;30.65;;
68888;SDS011;55930;47.412;8.790;2022-12-07T07:16:22;54.73;;;30.93;;
68888;SDS011;55930;47.412;8.790;2022-12-07T07:19:42;52.93;;;30.67;;
68888;SDS011;55930;47.412;8.790;2022-12-07T07:23:06;56.90;;;31.38;;
68888;SDS011;55930;47.412;8.790;2022-12-07T07:26:27;55.03;;;31.55;;
68888;SDS011;55930;47.412;8.790;2022-12-07T07:29:47;59.13;;;31.63;;
68888;SDS011;55930;47.412;8.790;2022-12-07T07:33:09;57.23;;;31.47;;
68888;SDS011;55930;47.412;8.790;2022-12-07T07:36:30;55.97;;;31.13;;
68888;SDS011;55930;47.412;8.790;2022-12-07T07:39:50;59.27;;;31.73;;
68888;SDS011;55930;47.412;8.790;2022-12-07T07:43:11;61.57;;;31.77;;
68888;SDS011;55930;47.412;8.790;2022-12-07T07:46:31;54.97;;;31.67;;
68888;SDS011;55930;47.412;8.790;2022-12-07T07:49:53;52.42;;;31.20;;
68888;SDS011;55930;47.412;8.790;2022-12-07T07:53:13;58.73;;;32.37;;
68888;SDS011;55930;47.412;8.790;2022-12-07T07:56:33;62.47;;;33.33;;
68888;SDS011;55930;47.412;8.790;2022-12-07T07:59:54;55.90;;;32.20;;
68888;SDS011;55930;47.412;8.790;2022-12-07T08:03:14;58.77;;;31.70;;
68888;SDS011;55930;47.412;8.790;2022-12-07T08:06:35;58.53;;;31.67;;
68888;SDS011;55930;47.412;8.790;2022-12-07T08:09:56;58.90;;;30.23;;
68888;SDS011;55930;47.412;8.790;2022-12-07T08:13:16;61.20;;;32.67;;
68888;SDS011;55930;47.412;8.790;2022-12-07T08:16:39;57.67;;;32.13;;
68888;SDS011;55930;47.412;8.790;2022-12-07T08:19:59;62.38;;;32.38;;
68888;SDS011;55930;47.412;8.790;2022-12-07T08:23:20;59.90;;;29.77;;
68888;SDS011;55930;47.412;8.790;2022-12-07T08:26:43;66.03;;;32.65;;
68888;SDS011;55930;47.412;8.790;2022-12-07T08:30:04;63.10;;;30.40;;
68888;SDS011;55930;47.412;8.790;2022-12-07T08:33:25;60.95;;;31.55;;
68888;SDS011;55930;47.412;8.790;2022-12-07T08:36:46;65.77;;;31.77;;
68888;SDS011;55930;47.412;8.790;2022-12-07T08:40:07;69.87;;;31.87;;
68888;SDS011;55930;47.412;8.790;2022-12-07T08:43:29;61.50;;;29.65;;
68888;SDS011;55930;47.412;8.790;2022-12-07T08:46:51;59.50;;;30.23;;
68888;SDS011;55930;47.412;8.790;2022-12-07T08:50:16;61.55;;;32.10;;
68888;SDS011;55930;47.412;8.790;2022-12-07T08:53:37;60.72;;;31.60;;
68888;SDS011;55930;47.412;8.790;2022-12-07T08:56:58;61.20;;;30.80;;
68888;SDS011;55930;47.412;8.790;2022-12-07T09:00:19;48.87;;;27.90;;
68888;SDS011;55930;47.412;8.790;2022-12-07T09:03:39;52.73;;;29.40;;
68888;SDS011;55930;47.412;8.790;2022-12-07T09:07:00;50.43;;;28.60;;
68888;SDS011;55930;47.412;8.790;2022-12-07T09:10:20;49.60;;;28.27;;
68888;SDS011;55930;47.412;8.790;2022-12-07T09:13:41;50.53;;;28.17;;
68888;SDS011;55930;47.412;8.790;2022-12-07T09:17:08;53.23;;;29.53;;
68888;SDS011;55930;47.412;8.790;2022-12-07T09:20:32;47.58;;;26.77;;
68888;SDS011;55930;47.412;8.790;2022-12-07T09:23:53;46.50;;;26.40;;
68888;SDS011;55930;47.412;8.790;2022-12-07T09:27:13;46.43;;;26.20;;
68888;SDS011;55930;47.412;8.790;2022-12-07T09:30:33;46.20;;;26.27;;
68888;SDS011;55930;47.412;8.790;2022-12-07T09:33:58;51.30;;;29.17;;
68888;SDS011;55930;47.412;8.790;2022-12-07T09:37:20;48.15;;;26.88;;
68888;SDS011;55930;47.412;8.790;2022-12-07T09:40:42;43.83;;;26.83;;
68888;SDS011;55930;47.412;8.790;2022-12-07T09:44:07;45.03;;;27.92;;
68888;SDS011;55930;47.412;8.790;2022-12-07T09:47:45;44.05;;;25.20;;
68888;SDS011;55930;47.412;8.790;2022-12-07T09:51:24;41.80;;;24.30;;
68888;SDS011;55930;47.412;8.790;2022-12-07T09:54:46;49.05;;;26.88;;
68888;SDS011;55930;47.412;8.790;2022-12-07T09:58:18;48.25;;;27.80;;
68888;SDS011;55930;47.412;8.790;2022-12-07T10:01:42;50.97;;;27.60;;
68888;SDS011;55930;47.412;8.790;2022-12-07T10:05:04;43.80;;;26.80;;
68888;SDS011;55930;47.412;8.790;2022-12-07T10:08:27;42.60;;;26.08;;
68888;SDS011;55930;47.412;8.790;2022-12-07T10:11:58;40.63;;;26.70;;
68888;SDS011;55930;47.412;8.790;2022-12-07T10:15:21;41.22;;;26.48;;
68888;SDS011;55930;47.412;8.790;2022-12-07T10:18:42;42.47;;;26.53;;
68888;SDS011;55930;47.412;8.790;2022-12-07T10:22:14;44.17;;;27.00;;
68888;SDS011;55930;47.412;8.790;2022-12-07T10:25:36;44.78;;;25.90;;
68888;SDS011;55930;47.412;8.790;2022-12-07T10:28:59;48.33;;;31.50;;
68888;SDS011;55930;47.412;8.790;2022-12-07T10:32:30;39.38;;;25.20;;
68888;SDS011;55930;47.412;8.790;2022-12-07T10:35:56;35.42;;;24.40;;
68888;SDS011;55930;47.412;8.790;2022-12-07T10:39:18;35.88;;;23.98;;
68888;SDS011;55930;47.412;8.790;2022-12-07T10:42:43;34.13;;;23.10;;
68888;SDS011;55930;47.412;8.790;2022-12-07T11:00:58;21.10;;;14.98;;
68888;SDS011;55930;47.412;8.790;2022-12-07T11:08:33;16.77;;;12.90;;
68888;SDS011;55930;47.412;8.790;2022-12-07T11:12:00;20.77;;;13.63;;
68888;SDS011;55930;47.412;8.790;2022-12-07T11:23:13;19.02;;;13.82;;
68888;SDS011;55930;47.412;8.790;2022-12-07T11:30:27;23.23;;;16.42;;
68888;SDS011;55930;47.412;8.790;2022-12-07T11:34:00;23.63;;;16.73;;
68888;SDS011;55930;47.412;8.790;2022-12-07T11:37:31;22.67;;;15.90;;
68888;SDS011;55930;47.412;8.790;2022-12-07T11:41:00;23.60;;;16.10;;
68888;SDS011;55930;47.412;8.790;2022-12-07T11:44:50;24.02;;;16.30;;
68888;SDS011;55930;47.412;8.790;2022-12-07T11:51:58;23.30;;;16.10;;
68888;SDS011;55930;47.412;8.790;2022-12-07T11:55:39;22.27;;;15.60;;
68888;SDS011;55930;47.412;8.790;2022-12-07T11:59:01;25.13;;;17.50;;
68888;SDS011;55930;47.412;8.790;2022-12-07T12:02:41;26.07;;;17.87;;
68888;SDS011;55930;47.412;8.790;2022-12-07T12:06:08;23.90;;;17.48;;
68888;SDS011;55930;47.412;8.790;2022-12-07T12:09:29;24.80;;;16.77;;
68888;SDS011;55930;47.412;8.790;2022-12-07T12:13:28;24.05;;;16.60;;
68888;SDS011;55930;47.412;8.790;2022-12-07T12:24:12;29.63;;;19.70;;
68888;SDS011;55930;47.412;8.790;2022-12-07T12:27:39;25.52;;;17.90;;
68888;SDS011;55930;47.412;8.790;2022-12-07T12:31:04;24.73;;;17.13;;
68888;SDS011;55930;47.412;8.790;2022-12-07T12:34:33;25.88;;;17.58;;
68888;SDS011;55930;47.412;8.790;2022-12-07T12:41:53;26.07;;;18.13;;
68888;SDS011;55930;47.412;8.790;2022-12-07T12:45:30;26.67;;;17.90;;
68888;SDS011;55930;47.412;8.790;2022-12-07T12:48:52;26.40;;;17.20;;
68888;SDS011;55930;47.412;8.790;2022-12-07T13:03:27;21.93;;;14.90;;
68888;SDS011;55930;47.412;8.790;2022-12-07T13:06:50;22.40;;;16.38;;
68888;SDS011;55930;47.412;8.790;2022-12-07T13:13:43;21.77;;;16.02;;
68888;SDS011;55930;47.412;8.790;2022-12-07T13:17:10;21.35;;;17.08;;
68888;SDS011;55930;47.412;8.790;2022-12-07T13:20:43;23.35;;;16.98;;
68888;SDS011;55930;47.412;8.790;2022-12-07T13:24:07;22.13;;;15.27;;
68888;SDS011;55930;47.412;8.790;2022-12-07T13:27:32;19.98;;;15.32;;
68888;SDS011;55930;47.412;8.790;2022-12-07T13:31:30;25.10;;;16.10;;
68888;SDS011;55930;47.412;8.790;2022-12-07T13:35:26;21.80;;;15.90;;
68888;SDS011;55930;47.412;8.790;2022-12-07T13:38:53;21.42;;;16.33;;
68888;SDS011;55930;47.412;8.790;2022-12-07T13:42:21;23.75;;;16.70;;
68888;SDS011;55930;47.412;8.790;2022-12-07T13:45:46;21.80;;;15.95;;
68888;SDS011;55930;47.412;8.790;2022-12-07T13:49:17;20.48;;;15.45;;
68888;SDS011;55930;47.412;8.790;2022-12-07T13:52:45;21.00;;;15.73;;
68888;SDS011;55930;47.412;8.790;2022-12-07T13:56:12;21.77;;;16.50;;
68888;SDS011;55930;47.412;8.790;2022-12-07T13:59:35;22.52;;;17.08;;
68888;SDS011;55930;47.412;8.790;2022-12-07T14:03:02;23.52;;;16.65;;
68888;SDS011;55930;47.412;8.790;2022-12-07T14:06:26;22.10;;;16.55;;
68888;SDS011;55930;47.412;8.790;2022-12-07T14:09:58;21.88;;;16.30;;
68888;SDS011;55930;47.412;8.790;2022-12-07T14:13:33;21.98;;;16.33;;
68888;SDS011;55930;47.412;8.790;2022-12-07T14:17:00;22.88;;;17.02;;
68888;SDS011;55930;47.412;8.790;2022-12-07T14:20:38;22.45;;;16.85;;
68888;SDS011;55930;47.412;8.790;2022-12-07T14:24:07;23.45;;;17.60;;
68888;SDS011;55930;47.412;8.790;2022-12-07T14:27:36;23.35;;;16.70;;
68888;SDS011;55930;47.412;8.790;2022-12-07T14:30:57;22.53;;;16.13;;
68888;SDS011;55930;47.412;8.790;2022-12-07T14:34:21;21.85;;;16.30;;
68888;SDS011;55930;47.412;8.790;2022-12-07T14:37:42;23.52;;;16.88;;
68888;SDS011;55930;47.412;8.790;2022-12-07T14:41:06;25.00;;;17.02;;
68888;SDS011;55930;47.412;8.790;2022-12-07T14:44:53;23.70;;;17.58;;
68888;SDS011;55930;47.412;8.790;2022-12-07T14:48:14;23.00;;;16.87;;
68888;SDS011;55930;47.412;8.790;2022-12-07T14:51:36;22.73;;;17.40;;
68888;SDS011;55930;47.412;8.790;2022-12-07T14:54:59;22.83;;;16.10;;
68888;SDS011;55930;47.412;8.790;2022-12-07T14:58:20;22.93;;;16.70;;
68888;SDS011;55930;47.412;8.790;2022-12-07T15:01:40;24.55;;;18.05;;
68888;SDS011;55930;47.412;8.790;2022-12-07T15:05:01;22.17;;;16.77;;
68888;SDS011;55930;47.412;8.790;2022-12-07T15:08:22;22.73;;;15.50;;
68888;SDS011;55930;47.412;8.790;2022-12-07T15:11:42;22.87;;;17.30;;
68888;SDS011;55930;47.412;8.790;2022-12-07T15:15:03;23.90;;;17.07;;
68888;SDS011;55930;47.412;8.790;2022-12-07T15:18:24;22.15;;;16.48;;
68888;SDS011;55930;47.412;8.790;2022-12-07T15:21:44;24.23;;;17.73;;
68888;SDS011;55930;47.412;8.790;2022-12-07T15:25:05;27.47;;;17.80;;
68888;SDS011;55930;47.412;8.790;2022-12-07T15:28:26;23.30;;;16.70;;
68888;SDS011;55930;47.412;8.790;2022-12-07T15:31:47;24.90;;;17.47;;
68888;SDS011;55930;47.412;8.790;2022-12-07T15:35:09;23.90;;;17.73;;
68888;SDS011;55930;47.412;8.790;2022-12-07T15:38:29;21.13;;;15.53;;
68888;SDS011;55930;47.412;8.790;2022-12-07T15:41:50;23.63;;;16.65;;
68888;SDS011;55930;47.412;8.790;2022-12-07T15:45:11;23.93;;;16.90;;
68888;SDS011;55930;47.412;8.790;2022-12-07T15:48:33;27.10;;;18.08;;
68888;SDS011;55930;47.412;8.790;2022-12-07T15:51:53;23.77;;;17.33;;
68888;SDS011;55930;47.412;8.790;2022-12-07T15:55:14;28.27;;;18.65;;
68888;SDS011;55930;47.412;8.790;2022-12-07T15:58:37;24.38;;;17.67;;
68888;SDS011;55930;47.412;8.790;2022-12-07T16:01:58;24.87;;;17.83;;
68888;SDS011;55930;47.412;8.790;2022-12-07T16:05:19;24.13;;;16.75;;
68888;SDS011;55930;47.412;8.790;2022-12-07T16:08:43;24.30;;;17.33;;
68888;SDS011;55930;47.412;8.790;2022-12-07T16:12:04;22.38;;;16.45;;
68888;SDS011;55930;47.412;8.790;2022-12-07T16:15:24;21.83;;;15.77;;
68888;SDS011;55930;47.412;8.790;2022-12-07T16:18:46;21.45;;;16.13;;
68888;SDS011;55930;47.412;8.790;2022-12-07T16:22:07;27.03;;;16.70;;
68888;SDS011;55930;47.412;8.790;2022-12-07T16:25:28;54.37;;;28.07;;
68888;SDS011;55930;47.412;8.790;2022-12-07T16:28:49;30.20;;;19.87;;
68888;SDS011;55930;47.412;8.790;2022-12-07T16:32:10;23.70;;;15.95;;
68888;SDS011;55930;47.412;8.790;2022-12-07T16:35:31;23.80;;;17.60;;
68888;SDS011;55930;47.412;8.790;2022-12-07T16:38:51;21.97;;;15.20;;
68888;SDS011;55930;47.412;8.790;2022-12-07T16:42:12;24.77;;;16.87;;
68888;SDS011;55930;47.412;8.790;2022-12-07T16:45:32;27.90;;;17.20;;
68888;SDS011;55930;47.412;8.790;2022-12-07T16:48:52;22.43;;;15.70;;
68888;SDS011;55930;47.412;8.790;2022-12-07T16:52:13;25.37;;;17.13;;
68888;SDS011;55930;47.412;8.790;2022-12-07T16:55:40;22.80;;;15.83;;
68888;SDS011;55930;47.412;8.790;2022-12-07T16:59:02;23.60;;;16.70;;
68888;SDS011;55930;47.412;8.790;2022-12-07T17:02:24;24.80;;;15.80;;
68888;SDS011;55930;47.412;8.790;2022-12-07T17:05:45;22.92;;;16.25;;
68888;SDS011;55930;47.412;8.790;2022-12-07T17:09:06;20.05;;;14.02;;
68888;SDS011;55930;47.412;8.790;2022-12-07T17:12:29;22.63;;;15.52;;
68888;SDS011;55930;47.412;8.790;2022-12-07T17:15:57;21.83;;;15.20;;
68888;SDS011;55930;47.412;8.790;2022-12-07T17:19:26;23.23;;;15.25;;
68888;SDS011;55930;47.412;8.790;2022-12-07T17:22:47;22.20;;;16.03;;
68888;SDS011;55930;47.412;8.790;2022-12-07T17:26:09;22.73;;;15.88;;
68888;SDS011;55930;47.412;8.790;2022-12-07T17:29:32;28.70;;;18.88;;
68888;SDS011;55930;47.412;8.790;2022-12-07T17:32:52;26.50;;;18.53;;
68888;SDS011;55930;47.412;8.790;2022-12-07T17:36:20;23.20;;;17.10;;
68888;SDS011;55930;47.412;8.790;2022-12-07T17:39:42;24.75;;;17.27;;
68888;SDS011;55930;47.412;8.790;2022-12-07T17:43:03;23.80;;;15.30;;
68888;SDS011;55930;47.412;8.790;2022-12-07T17:46:23;20.90;;;14.87;;
68888;SDS011;55930;47.412;8.790;2022-12-07T17:49:46;23.25;;;15.63;;
68888;SDS011;55930;47.412;8.790;2022-12-07T17:56:30;21.92;;;14.35;;
68888;SDS011;55930;47.412;8.790;2022-12-07T17:59:51;23.98;;;15.70;;
68888;SDS011;55930;47.412;8.790;2022-12-07T18:03:14;22.10;;;14.63;;
68888;SDS011;55930;47.412;8.790;2022-12-07T18:06:37;25.98;;;17.42;;
68888;SDS011;55930;47.412;8.790;2022-12-07T18:09:57;22.50;;;14.47;;
68888;SDS011;55930;47.412;8.790;2022-12-07T18:13:20;19.15;;;13.85;;
68888;SDS011;55930;47.412;8.790;2022-12-07T18:16:55;18.17;;;12.88;;
68888;SDS011;55930;47.412;8.790;2022-12-07T18:20:15;21.30;;;13.33;;
68888;SDS011;55930;47.412;8.790;2022-12-07T18:23:36;19.90;;;12.80;;
68888;SDS011;55930;47.412;8.790;2022-12-07T18:26:56;15.23;;;11.33;;
68888;SDS011;55930;47.412;8.790;2022-12-07T18:30:17;15.23;;;10.77;;
68888;SDS011;55930;47.412;8.790;2022-12-07T18:33:38;15.52;;;10.98;;
68888;SDS011;55930;47.412;8.790;2022-12-07T18:37:02;14.55;;;9.93;;
68888;SDS011;55930;47.412;8.790;2022-12-07T18:40:25;15.15;;;10.60;;
68888;SDS011;55930;47.412;8.790;2022-12-07T18:43:46;20.43;;;13.07;;
68888;SDS011;55930;47.412;8.790;2022-12-07T18:47:07;21.53;;;14.03;;
68888;SDS011;55930;47.412;8.790;2022-12-07T18:50:27;16.80;;;11.70;;
68888;SDS011;55930;47.412;8.790;2022-12-07T18:53:49;16.40;;;12.13;;
68888;SDS011;55930;47.412;8.790;2022-12-07T18:57:09;15.43;;;10.97;;
68888;SDS011;55930;47.412;8.790;2022-12-07T19:00:31;18.83;;;12.63;;
68888;SDS011;55930;47.412;8.790;2022-12-07T19:03:52;16.00;;;12.13;;
68888;SDS011;55930;47.412;8.790;2022-12-07T19:07:13;17.33;;;11.43;;
68888;SDS011;55930;47.412;8.790;2022-12-07T19:10:33;17.57;;;11.73;;
68888;SDS011;55930;47.412;8.790;2022-12-07T19:13:53;19.93;;;12.27;;
68888;SDS011;55930;47.412;8.790;2022-12-07T19:17:14;18.70;;;12.30;;
68888;SDS011;55930;47.412;8.790;2022-12-07T19:20:35;20.73;;;14.73;;
68888;SDS011;55930;47.412;8.790;2022-12-07T19:23:55;22.07;;;15.10;;
68888;SDS011;55930;47.412;8.790;2022-12-07T19:27:16;21.00;;;14.93;;
68888;SDS011;55930;47.412;8.790;2022-12-07T19:30:37;19.15;;;13.65;;
68888;SDS011;55930;47.412;8.790;2022-12-07T19:33:57;20.80;;;13.63;;
68888;SDS011;55930;47.412;8.790;2022-12-07T19:37:18;18.73;;;13.63;;
68888;SDS011;55930;47.412;8.790;2022-12-07T19:40:38;24.40;;;16.50;;
68888;SDS011;55930;47.412;8.790;2022-12-07T19:43:59;22.47;;;15.83;;
68888;SDS011;55930;47.412;8.790;2022-12-07T19:47:21;21.27;;;14.48;;
68888;SDS011;55930;47.412;8.790;2022-12-07T19:50:41;23.47;;;15.17;;
68888;SDS011;55930;47.412;8.790;2022-12-07T19:54:02;22.57;;;15.50;;
68888;SDS011;55930;47.412;8.790;2022-12-07T19:57:22;22.00;;;15.43;;
68888;SDS011;55930;47.412;8.790;2022-12-07T20:00:43;23.40;;;15.33;;
68888;SDS011;55930;47.412;8.790;2022-12-07T20:04:04;23.27;;;16.27;;
68888;SDS011;55930;47.412;8.790;2022-12-07T20:07:25;21.20;;;15.07;;
68888;SDS011;55930;47.412;8.790;2022-12-07T20:10:45;23.07;;;14.40;;
68888;SDS011;55930;47.412;8.790;2022-12-07T20:14:07;22.27;;;15.43;;
68888;SDS011;55930;47.412;8.790;2022-12-07T20:17:30;21.08;;;13.88;;
68888;SDS011;55930;47.412;8.790;2022-12-07T20:20:56;21.13;;;15.60;;
68888;SDS011;55930;47.412;8.790;2022-12-07T20:24:19;21.20;;;14.50;;
68888;SDS011;55930;47.412;8.790;2022-12-07T20:27:41;20.42;;;14.93;;
68888;SDS011;55930;47.412;8.790;2022-12-07T20:31:07;26.80;;;17.70;;
68888;SDS011;55930;47.412;8.790;2022-12-07T20:34:33;23.33;;;15.98;;
68888;SDS011;55930;47.412;8.790;2022-12-07T20:37:56;21.88;;;16.15;;
68888;SDS011;55930;47.412;8.790;2022-12-07T20:41:16;24.80;;;16.97;;
68888;SDS011;55930;47.412;8.790;2022-12-07T20:44:55;22.92;;;16.13;;
68888;SDS011;55930;47.412;8.790;2022-12-07T20:48:16;29.67;;;18.87;;
68888;SDS011;55930;47.412;8.790;2022-12-07T20:51:36;26.83;;;17.50;;
68888;SDS011;55930;47.412;8.790;2022-12-07T20:54:57;22.27;;;15.30;;
68888;SDS011;55930;47.412;8.790;2022-12-07T20:58:17;22.03;;;15.00;;
68888;SDS011;55930;47.412;8.790;2022-12-07T21:01:37;24.00;;;15.90;;
68888;SDS011;55930;47.412;8.790;2022-12-07T21:04:58;24.98;;;15.50;;
68888;SDS011;55930;47.412;8.790;2022-12-07T21:08:19;25.87;;;17.10;;
68888;SDS011;55930;47.412;8.790;2022-12-07T21:11:40;44.53;;;23.60;;
68888;SDS011;55930;47.412;8.790;2022-12-07T21:15:04;50.38;;;25.70;;
68888;SDS011;55930;47.412;8.790;2022-12-07T21:18:28;42.25;;;22.65;;
68888;SDS011;55930;47.412;8.790;2022-12-07T21:21:48;27.15;;;17.30;;
68888;SDS011;55930;47.412;8.790;2022-12-07T21:25:15;25.92;;;18.13;;
68888;SDS011;55930;47.412;8.790;2022-12-07T21:28:36;27.25;;;18.08;;
68888;SDS011;55930;47.412;8.790;2022-12-07T21:31:56;33.83;;;19.30;;
68888;SDS011;55930;47.412;8.790;2022-12-07T21:35:17;29.20;;;18.23;;
68888;SDS011;55930;47.412;8.790;2022-12-07T21:38:37;28.43;;;18.17;;